createdAt,value
2019-02-19T00:00:02.503Z,71.23
2019-02-19T00:02:34.135Z,69.87
2019-02-19T00:05:05.857Z,69.83
2019-02-19T00:07:39.382Z,72.67
2019-02-19T00:10:11.070Z,72.80
2019-02-19T00:12:42.753Z,74.03
2019-02-19T00:15:14.592Z,75.87
2019-02-19T00:17:47.618Z,69.87
2019-02-19T00:20:19.902Z,63.27
2019-02-19T00:22:53.438Z,73.37
2019-02-19T00:25:24.966Z,73.93
2019-02-19T00:27:58.154Z,70.33
2019-02-19T00:30:29.776Z,73.80
2019-02-19T00:33:03.866Z,72.17
2019-02-19T00:35:35.441Z,72.47
2019-02-19T00:38:08.886Z,70.20
2019-02-19T00:40:40.759Z,71.97
2019-02-19T00:43:13.522Z,72.87
2019-02-19T00:45:45.249Z,73.37
2019-02-19T00:48:19.880Z,73.13
2019-02-19T00:51:02.291Z,74.53
2019-02-19T00:53:33.932Z,70.30
2019-02-19T00:56:05.464Z,71.03
2019-02-19T00:58:37.919Z,77.23
2019-02-19T01:01:09.582Z,74.23
2019-02-19T01:03:41.329Z,76.50
2019-02-19T01:06:14.297Z,77.37
2019-02-19T01:08:46.849Z,77.40
2019-02-19T01:11:18.589Z,77.43
2019-02-19T01:13:50.304Z,76.90
2019-02-19T01:16:21.870Z,79.43
2019-02-19T01:18:53.433Z,75.63
2019-02-19T01:21:25.004Z,75.20
2019-02-19T01:23:56.695Z,78.67
2019-02-19T01:26:28.388Z,77.77
2019-02-19T01:29:01.853Z,78.17
2019-02-19T01:31:33.340Z,77.67
2019-02-19T01:34:07.997Z,80.27
2019-02-19T01:36:39.885Z,73.80
2019-02-19T01:39:12.763Z,77.13
2019-02-19T01:41:44.385Z,75.30
2019-02-19T01:44:16.721Z,84.67
2019-02-19T01:46:48.347Z,78.57
2019-02-19T01:49:21.146Z,76.83
2019-02-19T01:51:52.804Z,78.00
2019-02-19T01:54:24.336Z,75.50
2019-02-19T01:56:55.903Z,79.77
2019-02-19T01:59:27.610Z,76.07
2019-02-19T02:01:59.381Z,76.87
2019-02-19T02:04:33.112Z,78.17
2019-02-19T02:07:04.870Z,75.60
2019-02-19T02:09:37.010Z,76.83
2019-02-19T02:12:10.962Z,75.03
2019-02-19T02:14:42.569Z,76.63
2019-02-19T02:17:14.286Z,76.93
2019-02-19T02:19:46.201Z,75.27
2019-02-19T02:22:17.815Z,77.90
2019-02-19T02:24:49.690Z,76.47
2019-02-19T02:27:21.612Z,74.80
2019-02-19T02:29:53.836Z,71.40
2019-02-19T02:32:25.626Z,78.50
2019-02-19T02:34:57.118Z,75.47
2019-02-19T02:37:28.694Z,75.47
2019-02-19T02:40:00.274Z,75.13
2019-02-19T02:42:32.294Z,71.60
2019-02-19T02:45:03.872Z,74.87
2019-02-19T02:47:36.066Z,72.40
2019-02-19T02:50:09.036Z,77.70
2019-02-19T02:52:40.899Z,75.50
2019-02-19T02:55:12.749Z,74.53
2019-02-19T02:57:45.663Z,74.60
2019-02-19T03:00:17.462Z,76.70
2019-02-19T03:02:49.161Z,74.80
2019-02-19T03:05:21.687Z,76.87
2019-02-19T03:07:57.468Z,72.53
2019-02-19T03:10:29.025Z,73.87
2019-02-19T03:13:00.664Z,75.47
2019-02-19T03:15:32.296Z,72.43
2019-02-19T03:18:04.002Z,75.47
2019-02-19T03:20:35.662Z,74.97
2019-02-19T03:23:07.373Z,74.87
2019-02-19T03:25:39.233Z,72.30
2019-02-19T03:28:10.933Z,75.43
2019-02-19T03:30:42.659Z,74.43
2019-02-19T03:33:14.243Z,73.73
2019-02-19T03:35:45.918Z,71.43
2019-02-19T03:38:17.810Z,73.87
2019-02-19T03:40:49.392Z,69.93
2019-02-19T03:43:20.698Z,70.50
2019-02-19T03:45:52.356Z,72.87
2019-02-19T03:48:24.528Z,70.43
2019-02-19T03:50:56.680Z,71.73
2019-02-19T03:53:28.409Z,74.17
2019-02-19T03:55:59.940Z,73.53
2019-02-19T03:58:33.534Z,75.07
2019-02-19T04:01:06.931Z,71.53
2019-02-19T04:03:38.576Z,71.40
2019-02-19T04:06:11.577Z,70.27
2019-02-19T04:08:44.028Z,72.80
2019-02-19T04:11:15.686Z,69.33
2019-02-19T04:13:47.209Z,72.70
2019-02-19T04:16:21.499Z,72.80
2019-02-19T04:18:52.676Z,72.10
2019-02-19T04:21:24.359Z,71.93
2019-02-19T04:23:55.972Z,76.50
2019-02-19T04:26:32.619Z,77.07
2019-02-19T04:29:04.350Z,71.83
2019-02-19T04:31:35.919Z,73.83
2019-02-19T04:34:07.471Z,71.37
2019-02-19T04:36:40.346Z,69.90
2019-02-19T04:39:12.065Z,70.30
2019-02-19T04:41:43.949Z,68.23
2019-02-19T04:44:15.673Z,66.90
2019-02-19T04:46:47.411Z,71.13
2019-02-19T04:49:19.221Z,70.97
2019-02-19T04:51:51.273Z,75.77
2019-02-19T04:54:22.876Z,77.23
2019-02-19T04:56:54.738Z,74.43
2019-02-19T04:59:26.914Z,77.77
2019-02-19T05:01:58.654Z,74.07
2019-02-19T05:04:30.292Z,74.30
2019-02-19T05:07:02.159Z,66.60
2019-02-19T05:09:34.017Z,67.90
2019-02-19T05:12:05.949Z,70.70
2019-02-19T05:14:37.530Z,72.33
2019-02-19T05:17:09.348Z,78.80
2019-02-19T05:19:40.852Z,75.83
2019-02-19T05:22:12.590Z,72.80
2019-02-19T05:24:44.736Z,70.77
2019-02-19T05:27:16.412Z,73.97
2019-02-19T05:29:48.248Z,75.80
2019-02-19T05:32:20.018Z,74.57
2019-02-19T05:34:52.192Z,75.63
2019-02-19T05:37:23.867Z,76.47
2019-02-19T05:39:55.540Z,72.50
2019-02-19T05:42:27.219Z,74.70
2019-02-19T05:44:58.839Z,78.37
2019-02-19T05:47:30.584Z,74.43
2019-02-19T05:50:02.496Z,76.53
2019-02-19T05:52:34.699Z,74.03
2019-02-19T05:55:06.452Z,75.30
2019-02-19T05:57:39.591Z,77.10
2019-02-19T06:00:12.201Z,74.63
2019-02-19T06:02:44.160Z,71.53
2019-02-19T06:05:16.230Z,72.37
2019-02-19T06:07:49.066Z,67.53
2019-02-19T06:10:21.058Z,73.67
2019-02-19T06:12:52.738Z,71.63
2019-02-19T06:15:26.618Z,70.17
2019-02-19T06:17:58.661Z,73.37
2019-02-19T06:20:30.543Z,70.13
2019-02-19T06:23:02.404Z,71.47
2019-02-19T06:25:34.072Z,71.63
2019-02-19T06:28:05.871Z,70.67
2019-02-19T06:30:38.077Z,68.70
2019-02-19T06:33:09.706Z,70.47
2019-02-19T06:35:42.628Z,70.67
2019-02-19T06:38:14.336Z,69.13
2019-02-19T06:40:46.180Z,66.80
2019-02-19T06:43:18.162Z,68.97
2019-02-19T06:45:57.116Z,67.13
2019-02-19T06:48:28.809Z,66.13
2019-02-19T06:51:00.766Z,62.97
2019-02-19T06:53:32.877Z,65.57
2019-02-19T06:56:04.731Z,63.07
2019-02-19T06:58:36.993Z,64.03
2019-02-19T07:01:09.352Z,61.67
2019-02-19T07:04:00.952Z,62.30
2019-02-19T07:06:34.560Z,61.60
2019-02-19T07:09:07.920Z,58.63
2019-02-19T07:11:39.753Z,59.87
2019-02-19T07:14:12.825Z,57.70
2019-02-19T07:16:45.166Z,56.27
2019-02-19T07:19:16.986Z,57.17
2019-02-19T07:21:48.662Z,57.90
2019-02-19T07:24:20.776Z,53.80
2019-02-19T07:26:53.936Z,53.90
2019-02-19T07:29:30.776Z,54.37
2019-02-19T07:32:02.831Z,50.53
2019-02-19T07:34:34.768Z,49.40
2019-02-19T07:37:07.203Z,52.13
2019-02-19T07:39:40.688Z,51.63
2019-02-19T07:42:18.426Z,51.30
2019-02-19T07:44:50.607Z,48.47
2019-02-19T07:47:24.672Z,48.50
2019-02-19T07:49:55.930Z,47.70
2019-02-19T07:52:27.844Z,44.17
2019-02-19T07:54:59.554Z,45.63
2019-02-19T07:57:31.440Z,46.33
2019-02-19T08:00:03.275Z,50.10
2019-02-19T08:02:35.248Z,47.33
2019-02-19T08:05:07.293Z,50.20
2019-02-19T08:07:39.885Z,50.73
2019-02-19T08:10:11.995Z,49.90
2019-02-19T08:12:43.850Z,50.70
2019-02-19T08:15:15.899Z,52.07
2019-02-19T08:17:47.895Z,49.30
2019-02-19T08:20:19.844Z,47.30
2019-02-19T08:22:51.639Z,49.60
2019-02-19T08:25:23.809Z,46.03
2019-02-19T08:27:55.548Z,47.57
2019-02-19T08:30:27.596Z,45.73
2019-02-19T08:32:59.939Z,45.37
2019-02-19T08:35:32.118Z,45.40
2019-02-19T08:38:04.385Z,47.43
2019-02-19T08:40:36.742Z,43.70
2019-02-19T08:43:08.735Z,41.07
2019-02-19T08:45:40.656Z,45.20
2019-02-19T08:48:12.839Z,38.80
2019-02-19T08:50:45.291Z,35.63
2019-02-19T08:53:17.625Z,35.07
2019-02-19T08:55:58.510Z,34.20
2019-02-19T08:58:30.755Z,38.27
2019-02-19T09:01:02.651Z,34.47
2019-02-19T09:03:34.423Z,35.07
2019-02-19T09:06:06.432Z,39.07
2019-02-19T09:08:38.118Z,30.57
2019-02-19T09:11:10.322Z,34.93
2019-02-19T09:13:42.150Z,33.47
2019-02-19T09:16:14.318Z,30.73
2019-02-19T09:18:45.963Z,30.13
2019-02-19T09:21:18.033Z,33.33
2019-02-19T09:23:50.042Z,30.87
2019-02-19T09:26:21.979Z,30.10
2019-02-19T09:28:53.652Z,28.63
2019-02-19T09:31:26.194Z,33.17
2019-02-19T09:33:58.340Z,26.83
2019-02-19T09:36:33.278Z,28.97
2019-02-19T09:39:05.878Z,28.37
2019-02-19T09:41:39.925Z,27.83
2019-02-19T09:44:11.845Z,28.50
2019-02-19T09:46:43.507Z,29.10
2019-02-19T09:49:17.132Z,26.37
2019-02-19T09:51:48.893Z,26.87
2019-02-19T09:54:20.750Z,26.53
2019-02-19T09:56:52.604Z,26.83
2019-02-19T09:59:24.796Z,26.23
2019-02-19T10:01:56.767Z,26.33
2019-02-19T10:04:28.873Z,26.80
2019-02-19T10:07:00.564Z,26.80
2019-02-19T10:09:32.423Z,29.63
2019-02-19T10:12:04.816Z,35.43
2019-02-19T10:14:38.077Z,26.57
2019-02-19T10:17:09.998Z,27.10
2019-02-19T10:19:42.566Z,27.33
2019-02-19T10:22:14.600Z,25.77
2019-02-19T10:24:47.743Z,25.10
2019-02-19T10:27:20.076Z,23.93
2019-02-19T10:29:52.010Z,26.57
2019-02-19T10:32:24.434Z,24.60
2019-02-19T10:34:56.232Z,23.97
2019-02-19T10:37:28.092Z,24.50
2019-02-19T10:39:59.958Z,23.67
2019-02-19T10:42:33.048Z,21.93
2019-02-19T10:45:05.472Z,34.87
2019-02-19T10:47:37.363Z,23.93
2019-02-19T10:50:10.181Z,22.10
2019-02-19T10:52:42.040Z,20.97
2019-02-19T10:55:13.933Z,21.57
2019-02-19T10:57:45.792Z,19.97
2019-02-19T11:00:19.014Z,21.47
2019-02-19T11:02:54.064Z,20.63
2019-02-19T11:05:26.117Z,18.00
2019-02-19T11:07:58.271Z,18.77
2019-02-19T11:10:30.554Z,20.67
2019-02-19T11:13:02.841Z,19.77
2019-02-19T11:15:34.982Z,20.40
2019-02-19T11:18:06.832Z,15.67
2019-02-19T11:20:39.009Z,19.83
2019-02-19T11:23:11.625Z,20.37
2019-02-19T11:25:46.673Z,23.20
2019-02-19T11:28:18.642Z,20.00
2019-02-19T11:30:51.220Z,22.90
2019-02-19T11:33:23.684Z,19.87
2019-02-19T11:35:55.278Z,14.53
2019-02-19T11:38:27.518Z,18.37
2019-02-19T11:41:00.349Z,19.53
2019-02-19T11:43:33.203Z,22.13
2019-02-19T11:46:05.767Z,17.33
2019-02-19T11:48:37.787Z,16.93
2019-02-19T11:51:09.662Z,20.17
2019-02-19T11:53:41.742Z,18.67
2019-02-19T11:56:14.155Z,20.93
2019-02-19T11:58:47.052Z,18.70
2019-02-19T12:01:18.992Z,18.83
2019-02-19T12:03:51.392Z,19.47
2019-02-19T12:06:23.712Z,18.13
2019-02-19T12:08:56.030Z,18.30
2019-02-19T12:11:28.210Z,19.60
2019-02-19T12:14:03.611Z,16.80
2019-02-19T12:16:35.468Z,18.03
2019-02-19T12:19:07.171Z,18.03
2019-02-19T12:21:39.496Z,16.87
2019-02-19T12:24:11.608Z,17.27
2019-02-19T12:26:43.648Z,16.70
2019-02-19T12:29:25.481Z,18.73
2019-02-19T12:31:57.351Z,16.60
2019-02-19T12:34:29.418Z,17.13
2019-02-19T12:37:01.364Z,16.43
2019-02-19T12:39:33.472Z,17.27
2019-02-19T12:42:05.424Z,16.40
2019-02-19T12:44:37.692Z,18.53
2019-02-19T12:47:12.386Z,17.40
2019-02-19T12:49:49.848Z,16.47
2019-02-19T12:52:22.284Z,17.80
2019-02-19T12:54:54.102Z,16.57
2019-02-19T12:57:25.895Z,16.33
2019-02-19T12:59:57.935Z,16.50
2019-02-19T13:02:29.690Z,17.73
2019-02-19T13:05:01.812Z,18.40
2019-02-19T13:07:34.523Z,16.27
2019-02-19T13:10:06.360Z,16.97
2019-02-19T13:12:39.639Z,16.53
2019-02-19T13:15:15.638Z,16.93
2019-02-19T13:17:48.936Z,18.07
2019-02-19T13:20:21.566Z,17.30
2019-02-19T13:22:53.358Z,17.83
2019-02-19T13:25:25.498Z,19.43
2019-02-19T13:27:57.518Z,18.83
2019-02-19T13:30:29.606Z,17.07
2019-02-19T13:33:01.472Z,17.13
2019-02-19T13:35:33.295Z,18.97
2019-02-19T13:38:05.660Z,16.23
2019-02-19T13:40:37.622Z,18.60
2019-02-19T13:43:09.818Z,19.77
2019-02-19T13:45:41.622Z,19.57
2019-02-19T13:48:13.716Z,17.80
2019-02-19T13:50:45.496Z,16.73
2019-02-19T13:53:41.250Z,15.83
2019-02-19T13:56:12.866Z,16.50
2019-02-19T13:58:45.088Z,14.70
2019-02-19T14:01:16.826Z,18.83
2019-02-19T14:03:48.616Z,14.87
2019-02-19T14:06:20.394Z,15.20
2019-02-19T14:08:57.952Z,14.97
2019-02-19T14:11:32.458Z,16.30
2019-02-19T14:14:25.990Z,14.47
2019-02-19T14:17:05.224Z,17.03
2019-02-19T14:20:06.900Z,15.07
2019-02-19T14:22:58.515Z,15.33
2019-02-19T14:25:49.521Z,18.47
2019-02-19T14:28:41.346Z,16.20
2019-02-19T14:31:41.165Z,17.10
2019-02-19T14:34:28.086Z,16.83
2019-02-19T14:37:33.505Z,16.40
2019-02-19T14:40:24.656Z,17.13
2019-02-19T14:43:29.993Z,17.80
2019-02-19T14:46:26.328Z,18.13
2019-02-19T14:49:30.095Z,19.33
2019-02-19T14:52:15.704Z,18.07
2019-02-19T14:55:11.052Z,17.17
2019-02-19T14:58:03.041Z,15.37
2019-02-19T15:01:01.326Z,17.50
2019-02-19T15:03:56.324Z,17.67
2019-02-19T15:06:49.205Z,19.13
2019-02-19T15:09:57.084Z,19.00
2019-02-19T15:12:47.694Z,18.20
2019-02-19T15:15:29.447Z,19.13
2019-02-19T15:18:25.306Z,18.27
2019-02-19T15:21:15.977Z,21.40
2019-02-19T15:24:05.673Z,18.00
2019-02-19T15:26:58.542Z,19.73
2019-02-19T15:29:50.544Z,19.20
2019-02-19T15:32:52.462Z,19.63
2019-02-19T15:35:51.822Z,22.13
2019-02-19T15:38:34.696Z,21.80
2019-02-19T15:41:25.860Z,21.43
2019-02-19T15:44:24.490Z,21.43
2019-02-19T15:47:30.809Z,21.77
2019-02-19T15:50:26.524Z,20.13
2019-02-19T15:53:17.359Z,20.73
2019-02-19T15:56:17.419Z,21.30
2019-02-19T15:59:08.268Z,21.00
2019-02-19T16:01:48.758Z,22.17
2019-02-19T16:04:34.611Z,19.77
2019-02-19T16:07:26.634Z,21.63
2019-02-19T16:10:06.296Z,22.33
2019-02-19T16:13:03.439Z,22.77
2019-02-19T16:15:54.299Z,22.10
2019-02-19T16:18:53.754Z,20.93
2019-02-19T16:21:50.578Z,24.40
2019-02-19T16:24:32.517Z,22.27
2019-02-19T16:27:29.826Z,22.93
2019-02-19T16:30:23.023Z,22.77
2019-02-19T16:33:15.870Z,22.57
2019-02-19T16:36:21.174Z,21.97
2019-02-19T16:39:01.862Z,23.60
2019-02-19T16:41:42.326Z,37.57
2019-02-19T16:44:29.974Z,20.73
2019-02-19T16:47:23.024Z,22.13
2019-02-19T16:50:22.443Z,21.83
2019-02-19T16:53:06.871Z,23.17
2019-02-19T16:55:52.826Z,26.63
2019-02-19T16:58:35.894Z,22.27
2019-02-19T17:01:25.390Z,22.90
2019-02-19T17:04:14.618Z,25.90
2019-02-19T17:07:05.041Z,22.83
2019-02-19T17:10:01.158Z,29.00
2019-02-19T17:12:43.285Z,23.30
2019-02-19T17:15:34.475Z,25.87
2019-02-19T17:18:33.066Z,24.47
2019-02-19T17:21:24.894Z,24.10
2019-02-19T17:24:15.207Z,26.10
2019-02-19T17:26:55.477Z,24.50
2019-02-19T17:29:40.360Z,23.37
2019-02-19T17:32:31.522Z,23.57
2019-02-19T17:35:22.226Z,24.50
2019-02-19T17:38:14.458Z,20.43
2019-02-19T17:40:56.358Z,23.77
2019-02-19T17:43:45.318Z,24.73
2019-02-19T17:46:46.870Z,23.87
2019-02-19T17:49:55.910Z,24.00
2019-02-19T17:52:41.164Z,25.10
2019-02-19T17:55:32.160Z,24.73
2019-02-19T17:58:28.425Z,19.80
2019-02-19T18:01:32.324Z,23.97
2019-02-19T18:04:16.442Z,24.77
2019-02-19T18:07:21.596Z,25.97
2019-02-19T18:10:32.487Z,25.50
2019-02-19T18:13:28.580Z,26.57
2019-02-19T18:16:21.968Z,18.10
2019-02-19T18:18:55.634Z,27.93
2019-02-19T18:21:27.510Z,25.57
2019-02-19T18:23:59.344Z,27.03
2019-02-19T18:26:31.601Z,27.20
2019-02-19T18:29:04.272Z,29.27
2019-02-19T18:31:36.196Z,27.53
2019-02-19T18:34:08.130Z,26.60
2019-02-19T18:36:40.050Z,29.03
2019-02-19T18:39:11.913Z,25.43
2019-02-19T18:41:43.788Z,31.60
2019-02-19T18:44:15.798Z,31.27
2019-02-19T18:46:47.878Z,29.43
2019-02-19T18:49:20.000Z,24.97
2019-02-19T18:52:02.676Z,31.77
2019-02-19T18:54:35.178Z,32.17
2019-02-19T18:57:09.226Z,31.83
2019-02-19T18:59:41.161Z,31.73
2019-02-19T19:02:13.199Z,31.80
2019-02-19T19:04:45.412Z,31.50
2019-02-19T19:07:17.286Z,34.07
2019-02-19T19:09:48.988Z,33.07
2019-02-19T19:12:20.886Z,32.80
2019-02-19T19:14:53.055Z,25.53
2019-02-19T19:17:24.770Z,26.80
2019-02-19T19:19:56.743Z,32.90
2019-02-19T19:22:28.735Z,25.13
2019-02-19T19:25:00.746Z,35.03
2019-02-19T19:27:33.526Z,33.33
2019-02-19T19:30:05.976Z,33.30
2019-02-19T19:32:37.825Z,31.17
2019-02-19T19:35:11.790Z,32.80
2019-02-19T19:37:43.894Z,28.67
2019-02-19T19:40:16.102Z,27.80
2019-02-19T19:42:48.041Z,25.80
2019-02-19T19:45:20.188Z,25.90
2019-02-19T19:47:52.046Z,29.77
2019-02-19T19:50:24.128Z,34.13
2019-02-19T19:52:56.078Z,29.33
2019-02-19T19:55:28.484Z,34.40
2019-02-19T19:58:00.604Z,31.73
2019-02-19T20:00:32.655Z,38.57
2019-02-19T20:03:10.004Z,38.80
2019-02-19T20:05:42.288Z,37.57
2019-02-19T20:08:14.328Z,37.13
2019-02-19T20:10:46.211Z,35.17
2019-02-19T20:13:21.096Z,37.00
2019-02-19T20:15:53.102Z,34.37
2019-02-19T20:18:24.817Z,31.57
2019-02-19T20:20:56.748Z,30.67
2019-02-19T20:23:28.474Z,29.87
2019-02-19T20:26:00.188Z,30.83
2019-02-19T20:28:32.068Z,33.43
2019-02-19T20:31:05.034Z,28.77
2019-02-19T20:33:36.998Z,28.30
2019-02-19T20:36:08.805Z,29.33
2019-02-19T20:38:40.552Z,21.63
2019-02-19T20:41:12.372Z,23.57
2019-02-19T20:43:44.310Z,25.73
2019-02-19T20:46:18.610Z,27.03
2019-02-19T20:48:50.436Z,28.07
2019-02-19T20:51:22.604Z,26.20
2019-02-19T20:53:54.322Z,27.43
2019-02-19T20:56:26.179Z,26.83
2019-02-19T20:58:57.890Z,26.03
2019-02-19T21:01:31.599Z,20.47
2019-02-19T21:04:03.478Z,20.00
2019-02-19T21:06:35.652Z,27.27
2019-02-19T21:09:08.004Z,25.47
2019-02-19T21:11:41.732Z,25.63
2019-02-19T21:14:13.948Z,27.93
2019-02-19T21:16:45.952Z,26.87
2019-02-19T21:19:19.010Z,26.17
2019-02-19T21:21:52.516Z,27.50
2019-02-19T21:24:26.144Z,26.07
2019-02-19T21:26:57.802Z,25.63
2019-02-19T21:29:31.196Z,27.47
2019-02-19T21:32:03.127Z,25.47
2019-02-19T21:34:35.226Z,26.90
2019-02-19T21:37:09.126Z,21.17
2019-02-19T21:39:41.176Z,24.60
2019-02-19T21:42:16.408Z,21.97
2019-02-19T21:44:49.889Z,23.13
2019-02-19T21:47:23.681Z,24.20
2019-02-19T21:49:55.628Z,26.40
2019-02-19T21:52:29.889Z,25.17
2019-02-19T21:55:01.728Z,23.53
2019-02-19T21:57:33.484Z,25.07
2019-02-19T22:00:06.610Z,25.37
2019-02-19T22:02:39.933Z,25.33
2019-02-19T22:05:14.943Z,26.80
2019-02-19T22:07:47.194Z,26.33
2019-02-19T22:10:18.987Z,25.60
2019-02-19T22:12:52.125Z,28.13
2019-02-19T22:15:23.958Z,25.57
2019-02-19T22:17:56.815Z,25.30
2019-02-19T22:20:40.143Z,26.50
2019-02-19T22:23:12.110Z,26.83
2019-02-19T22:25:43.910Z,26.63
2019-02-19T22:28:15.815Z,26.40
2019-02-19T22:30:47.603Z,23.63
2019-02-19T22:33:20.927Z,26.17
2019-02-19T22:35:53.688Z,24.50
2019-02-19T22:38:27.096Z,21.73
2019-02-19T22:40:58.775Z,25.43
2019-02-19T22:43:36.430Z,26.43
2019-02-19T22:46:11.642Z,27.40
2019-02-19T22:48:43.271Z,26.93
2019-02-19T22:51:15.364Z,27.60
2019-02-19T22:53:54.602Z,26.07
2019-02-19T22:56:33.125Z,26.50
2019-02-19T22:59:04.805Z,28.17
2019-02-19T23:01:46.362Z,26.90
2019-02-19T23:04:19.902Z,29.43
2019-02-19T23:06:52.866Z,29.27
2019-02-19T23:09:24.571Z,30.60
2019-02-19T23:11:56.191Z,29.80
2019-02-19T23:14:27.756Z,30.10
2019-02-19T23:17:00.050Z,26.43
2019-02-19T23:19:32.012Z,30.03
2019-02-19T23:22:21.438Z,24.73
2019-02-19T23:24:50.257Z,31.90
2019-02-19T23:27:21.614Z,30.27
2019-02-19T23:29:53.516Z,29.87
2019-02-19T23:32:25.283Z,28.53
2019-02-19T23:35:19.650Z,25.10
2019-02-19T23:37:51.727Z,24.43
2019-02-19T23:40:24.007Z,24.17
2019-02-19T23:42:56.074Z,23.80
2019-02-19T23:45:28.118Z,26.63
2019-02-19T23:48:00.952Z,28.37
2019-02-19T23:50:32.678Z,26.20
2019-02-19T23:53:05.132Z,25.13
2019-02-19T23:55:38.196Z,24.13
2019-02-19T23:58:10.062Z,26.23
